Time;durP1;ratioP1;P1;durP2;ratioP2;P2;SDS_P1;SDS_P2;PMS_P1;PMS_P2;Temp;Humidity;BMP_temperature;BMP_pressure;BME280_temperature;BME280_humidity;BME280_pressure;Samples;Min_cycle;Max_cycle;Signal;HPM_P1;HPM_P2
2023/05/24 16:58:48;;;;;;;138.02;11.25;;;;;;;-148.24;100.00;61531.34;5023312;28;20418;-59
2023/05/24 17:01:14;;;;;;;109.20;10.07;;;;;;;-148.24;100.00;61531.34;5004631;28;20046;-58
2023/05/24 17:03:39;;;;;;;62.58;6.95;;;;;;;-148.24;100.00;61531.34;4998045;28;20064;-58
2023/05/24 17:06:05;;;;;;;66.65;7.65;;;;;;;-148.24;100.00;61531.34;4994835;28;20511;-58
2023/05/24 17:08:32;;;;;;;64.65;7.15;;;;;;;-148.24;100.00;61531.34;4996484;28;20018;-57
2023/05/24 17:10:58;;;;;;;95.00;9.88;;;;;;;-148.24;100.00;61531.34;4997164;28;20795;-57
2023/05/24 17:13:26;;;;;;;59.88;6.93;;;;;;;-148.24;100.00;61531.34;4999026;28;20037;-59
2023/05/24 17:15:55;;;;;;;94.05;9.65;;;;;;;-148.24;100.00;61531.34;4997718;28;20148;-59
2023/05/24 17:18:29;;;;;;;59.20;7.20;;;;;;;-148.24;100.00;61531.34;4998032;28;20050;-57
2023/05/24 17:20:55;;;;;;;106.93;9.20;;;;;;;-148.24;100.00;61531.34;4995920;28;20582;-58
2023/05/24 17:23:23;;;;;;;60.15;5.93;;;;;;;-148.24;100.00;61531.34;5001531;28;20045;-58
2023/05/24 17:25:49;;;;;;;107.95;9.68;;;;;;;-148.24;100.00;61531.34;4996787;28;20038;-58
2023/05/24 17:28:15;;;;;;;62.88;6.38;;;;;;;-148.24;100.00;61531.34;5001042;28;20022;-60
2023/05/24 17:30:40;;;;;;;66.47;6.50;;;;;;;-148.24;100.00;61531.34;4997245;28;20411;-56
2023/05/24 17:33:05;;;;;;;74.00;6.88;;;;;;;-148.24;100.00;61531.34;4998653;28;20026;-57
2023/05/24 17:35:31;;;;;;;76.00;7.28;;;;;;;-148.24;100.00;61531.34;4999132;28;20380;-56
2023/05/24 17:37:56;;;;;;;108.45;9.63;;;;;;;-148.24;100.00;61531.34;4998676;28;20025;-56
2023/05/24 17:40:21;;;;;;;55.95;5.97;;;;;;;-148.24;100.00;61531.34;4999183;28;20029;-57
2023/05/24 17:42:47;;;;;;;90.15;8.68;;;;;;;-148.24;100.00;61531.34;4997429;28;20034;-56
2023/05/24 17:45:12;;;;;;;66.03;7.07;;;;;;;-148.24;100.00;61531.34;4997648;28;20022;-55
2023/05/24 17:47:38;;;;;;;44.88;5.63;;;;;;;-148.24;100.00;61531.34;4999511;28;20018;-55
2023/05/24 17:50:03;;;;;;;76.32;7.47;;;;;;;-148.24;100.00;61531.34;4996108;28;21586;-55
2023/05/24 17:52:29;;;;;;;81.07;7.22;;;;;;;-148.24;100.00;61531.34;5019450;28;20458;-57
2023/05/24 17:54:55;;;;;;;102.72;8.85;;;;;;;-148.24;100.00;61531.34;5017058;28;20025;-56
2023/05/24 17:57:21;;;;;;;63.30;6.90;;;;;;;-148.24;100.00;61531.34;5017076;28;20525;-56
2023/05/24 17:59:46;;;;;;;67.15;7.00;;;;;;;-148.24;100.00;61531.34;5016266;28;20542;-57
2023/05/24 18:02:12;;;;;;;60.67;6.28;;;;;;;-148.24;100.00;61531.34;5019020;28;20041;-57
2023/05/24 18:04:37;;;;;;;65.50;6.85;;;;;;;-148.24;100.00;61531.34;5019010;28;20042;-55
2023/05/24 18:07:02;;;;;;;118.80;10.45;;;;;;;-148.24;100.00;61531.34;5014917;28;20351;-58
2023/05/24 18:09:28;;;;;;;78.05;7.45;;;;;;;-148.24;100.00;61531.34;5009205;28;20340;-57
2023/05/24 18:11:54;;;;;;;110.28;9.48;;;;;;;-148.24;100.00;61531.34;5002749;28;20045;-60
2023/05/24 18:14:19;;;;;;;70.63;7.13;;;;;;;-148.24;100.00;61531.34;5003451;28;20054;-58
2023/05/24 18:16:44;;;;;;;105.25;8.95;;;;;;;-148.24;100.00;61531.34;4999949;28;20065;-56
2023/05/24 18:19:10;;;;;;;70.53;6.82;;;;;;;-148.24;100.00;61531.34;4999176;28;20164;-57
2023/05/24 18:21:35;;;;;;;70.75;7.07;;;;;;;-148.24;100.00;61531.34;5005594;28;20048;-56
2023/05/24 18:24:01;;;;;;;119.57;10.50;;;;;;;-148.24;100.00;61531.34;4989994;28;20030;-56
2023/05/24 18:26:26;;;;;;;67.03;6.45;;;;;;;-148.24;100.00;61531.34;4989069;28;20061;-59
2023/05/24 18:28:52;;;;;;;120.63;10.48;;;;;;;-148.24;100.00;61531.34;4983156;28;20404;-59
2023/05/24 18:31:19;;;;;;;57.70;6.38;;;;;;;-148.24;100.00;61531.34;4984888;28;20399;-59
2023/05/24 18:33:44;;;;;;;58.45;6.18;;;;;;;-148.24;100.00;61531.34;4984880;28;20755;-58
2023/05/24 18:36:11;;;;;;;60.20;6.30;;;;;;;-148.24;100.00;61531.34;4980848;28;20093;-57
2023/05/24 18:38:38;;;;;;;66.55;6.28;;;;;;;-148.24;100.00;61531.34;4983835;28;20791;-56
2023/05/24 18:41:08;;;;;;;126.07;11.05;;;;;;;-148.24;100.00;61531.34;4982402;28;20076;-60
2023/05/24 18:43:34;;;;;;;87.22;7.60;;;;;;;-148.24;100.00;61531.34;4984196;28;20026;-58
2023/05/24 18:45:59;;;;;;;122.15;10.65;;;;;;;-148.24;100.00;61531.34;4981686;28;20135;-56
2023/05/24 18:48:25;;;;;;;88.90;7.72;;;;;;;-148.24;100.00;61531.34;4985687;28;20106;-57
2023/05/24 18:50:50;;;;;;;117.72;9.70;;;;;;;-148.24;100.00;61531.34;4981755;28;20130;-56
2023/05/24 18:53:16;;;;;;;85.63;7.88;;;;;;;-148.24;100.00;61531.34;4982720;28;20036;-57
2023/05/24 18:55:41;;;;;;;106.93;9.43;;;;;;;-148.24;100.00;61531.34;4980360;28;20188;-57
2023/05/24 18:58:07;;;;;;;111.20;9.20;;;;;;;-148.24;100.00;61531.34;4978295;28;21767;-57
2023/05/24 19:00:33;;;;;;;79.75;7.05;;;;;;;-148.24;100.00;61531.34;4985940;28;20048;-59
2023/05/24 19:02:59;;;;;;;117.90;10.20;;;;;;;-148.24;100.00;61531.34;5000208;28;20026;-57
2023/05/24 19:05:24;;;;;;;68.15;6.93;;;;;;;-148.24;100.00;61531.34;5002023;28;20025;-57
2023/05/24 19:07:49;;;;;;;93.35;8.02;;;;;;;-148.24;100.00;61531.34;4999741;28;20427;-58
2023/05/24 19:10:16;;;;;;;69.05;6.63;;;;;;;-148.24;100.00;61531.34;5002172;28;20033;-56
2023/05/24 19:12:41;;;;;;;71.65;6.97;;;;;;;-148.24;100.00;61531.34;5003129;28;20124;-56
2023/05/24 19:15:07;;;;;;;142.25;12.00;;;;;;;-148.24;100.00;61531.34;4999437;28;20025;-56
2023/05/24 19:17:33;;;;;;;85.45;7.50;;;;;;;-148.24;100.00;61531.34;4999188;28;20042;-58
2023/05/24 19:19:58;;;;;;;132.88;11.05;;;;;;;-148.24;100.00;61531.34;4996950;28;20128;-56
2023/05/24 19:22:26;;;;;;;96.40;8.15;;;;;;;-148.24;100.00;61531.34;4999724;28;20041;-56
2023/05/24 19:24:51;;;;;;;90.65;8.38;;;;;;;-148.24;100.00;61531.34;4999243;28;20124;-57
2023/05/24 19:27:17;;;;;;;91.47;8.02;;;;;;;-148.24;100.00;61531.34;4998854;28;20164;-57
2023/05/24 19:29:42;;;;;;;97.53;7.90;;;;;;;-148.24;100.00;61531.34;4998495;28;20064;-56
2023/05/24 19:32:10;;;;;;;108.70;10.05;;;;;;;-148.24;100.00;61531.34;4999665;28;20744;-56
2023/05/24 19:34:36;;;;;;;107.55;8.30;;;;;;;-148.24;100.00;61531.34;4999908;28;20098;-57
2023/05/24 19:37:01;;;;;;;134.63;10.50;;;;;;;-148.24;100.00;61531.34;4997727;28;20806;-57
2023/05/24 19:39:27;;;;;;;90.72;8.15;;;;;;;-148.24;100.00;61531.34;4999237;28;20037;-58
2023/05/24 19:41:52;;;;;;;113.97;9.77;;;;;;;-148.24;100.00;61531.34;4996667;28;20049;-59
2023/05/24 19:44:18;;;;;;;79.25;7.68;;;;;;;-148.24;100.00;61531.34;4998342;28;20095;-57
2023/05/24 19:46:44;;;;;;;98.72;8.43;;;;;;;-148.24;100.00;61531.34;5000487;28;20368;-56
2023/05/24 19:49:11;;;;;;;155.48;12.57;;;;;;;-148.24;100.00;61531.34;4997928;28;20037;-58
2023/05/24 19:51:36;;;;;;;88.45;8.32;;;;;;;-148.24;100.00;61531.34;4999104;28;20033;-58
2023/05/24 19:54:02;;;;;;;160.77;12.20;;;;;;;-148.24;100.00;61531.34;4999406;28;20091;-58
2023/05/24 19:56:28;;;;;;;111.50;9.52;;;;;;;-148.24;100.00;61531.34;4998810;28;20080;-59
2023/05/24 19:58:53;;;;;;;137.50;11.00;;;;;;;-148.24;100.00;61531.34;4998081;28;20116;-58
2023/05/24 20:01:18;;;;;;;132.15;11.30;;;;;;;-148.24;100.00;61531.34;4999368;28;20159;-60
2023/05/24 20:03:47;;;;;;;122.43;11.32;;;;;;;-148.24;100.00;61531.34;5000486;28;20037;-56
2023/05/24 20:06:14;;;;;;;116.03;10.40;;;;;;;-148.24;100.00;61531.34;4997540;28;20156;-58
2023/05/24 20:08:39;;;;;;;114.07;9.90;;;;;;;-148.24;100.00;61531.34;5000870;28;20701;-58
2023/05/24 20:11:05;;;;;;;166.23;14.20;;;;;;;-148.24;100.00;61531.34;4997154;28;20045;-60
2023/05/24 20:13:30;;;;;;;162.70;12.85;;;;;;;-148.24;100.00;61531.34;4999167;28;20033;-58
2023/05/24 20:15:56;;;;;;;126.82;11.07;;;;;;;-148.24;100.00;61531.34;5001285;28;20048;-62
2023/05/24 20:18:21;;;;;;;103.47;8.93;;;;;;;-148.24;100.00;61531.34;5002953;28;20037;-57
2023/05/24 20:20:47;;;;;;;89.25;8.10;;;;;;;-148.24;100.00;61531.34;5004086;28;20132;-59
2023/05/24 20:23:12;;;;;;;82.75;7.57;;;;;;;-148.24;100.00;61531.34;5001704;28;20029;-59
2023/05/24 20:25:37;;;;;;;108.65;8.85;;;;;;;-148.24;100.00;61531.34;5001637;28;20050;-59
2023/05/24 20:28:04;;;;;;;135.93;11.60;;;;;;;-148.24;100.00;61531.34;4999830;28;20036;-59
2023/05/24 20:30:31;;;;;;;98.95;9.05;;;;;;;-148.24;100.00;61531.34;5000896;28;20041;-60
2023/05/24 20:32:56;;;;;;;120.80;10.43;;;;;;;-148.24;100.00;61531.34;5000670;28;20042;-59
2023/05/24 20:35:22;;;;;;;88.18;8.20;;;;;;;-148.24;100.00;61531.34;5002281;28;20032;-58
2023/05/24 20:37:47;;;;;;;95.88;8.65;;;;;;;-148.24;100.00;61531.34;5001603;28;20798;-59
2023/05/24 20:40:21;;;;;;;88.22;8.18;;;;;;;-148.24;100.00;61531.34;5001542;28;20149;-58
2023/05/24 20:42:47;;;;;;;59.03;7.03;;;;;;;-148.24;100.00;61531.34;5003654;28;20022;-60
2023/05/24 20:45:12;;;;;;;127.30;10.27;;;;;;;-148.24;100.00;61531.34;5000184;28;20014;-60
2023/05/24 20:47:38;;;;;;;66.70;6.32;;;;;;;-148.24;100.00;61531.34;5003179;28;20029;-60
2023/05/24 20:50:05;;;;;;;114.30;9.55;;;;;;;-148.24;100.00;61531.34;5000204;28;20037;-59
2023/05/24 20:52:31;;;;;;;86.85;7.50;;;;;;;-148.24;100.00;61531.34;5000430;28;20753;-60
2023/05/24 20:54:56;;;;;;;82.05;7.50;;;;;;;-148.24;100.00;61531.34;5000490;28;20119;-60
2023/05/24 20:57:21;;;;;;;79.70;7.53;;;;;;;-148.24;100.00;61531.34;5002141;28;20432;-60
2023/05/24 20:59:47;;;;;;;62.53;6.55;;;;;;;-148.24;100.00;61531.34;5002041;28;20029;-58
2023/05/24 21:02:12;;;;;;;107.32;9.80;;;;;;;-148.24;100.00;61531.34;5000792;28;20442;-59
2023/05/24 21:04:38;;;;;;;79.95;7.55;;;;;;;-148.24;100.00;61531.34;5002868;28;20037;-60
2023/05/24 21:07:03;;;;;;;132.70;10.82;;;;;;;-148.24;100.00;61531.34;5000552;28;20041;-60
2023/05/24 21:09:28;;;;;;;73.22;6.93;;;;;;;-148.24;100.00;61531.34;5001655;28;20036;-57
2023/05/24 21:11:54;;;;;;;71.88;6.88;;;;;;;-148.24;100.00;61531.34;5002358;28;20065;-58
2023/05/24 21:14:19;;;;;;;67.15;6.93;;;;;;;-148.24;100.00;61531.34;5001512;28;20017;-58
2023/05/24 21:16:45;;;;;;;75.32;7.47;;;;;;;-148.24;100.00;61531.34;5001691;28;20127;-57
2023/05/24 21:19:10;;;;;;;114.28;9.77;;;;;;;-148.24;100.00;61531.34;4999928;28;20037;-59
2023/05/24 21:21:36;;;;;;;66.72;6.90;;;;;;;-148.24;100.00;61531.34;5001796;28;20503;-60
2023/05/24 21:24:02;;;;;;;125.38;10.65;;;;;;;-148.24;100.00;61531.34;5000372;28;20044;-59
2023/05/24 21:26:27;;;;;;;71.28;6.75;;;;;;;-148.24;100.00;61531.34;5016351;28;20410;-57
2023/05/24 21:28:53;;;;;;;76.53;7.20;;;;;;;-148.24;100.00;61531.34;5001073;28;20494;-59
2023/05/24 21:31:19;;;;;;;51.88;6.38;;;;;;;-148.24;100.00;61531.34;5001668;28;20075;-57
2023/05/24 21:33:45;;;;;;;63.53;6.25;;;;;;;-148.24;100.00;61531.34;5002182;28;20033;-57
2023/05/24 21:36:10;;;;;;;118.93;9.77;;;;;;;-148.24;100.00;61531.34;5000133;28;20038;-58
2023/05/24 21:38:36;;;;;;;68.65;6.32;;;;;;;-148.24;100.00;61531.34;5002964;28;20014;-60
2023/05/24 21:41:01;;;;;;;110.22;9.85;;;;;;;-148.24;100.00;61531.34;4999447;28;20549;-57
2023/05/24 21:43:26;;;;;;;82.25;7.45;;;;;;;-148.24;100.00;61531.34;5001226;28;20033;-59
2023/05/24 21:45:52;;;;;;;60.53;6.38;;;;;;;-148.24;100.00;61531.34;5003933;28;20069;-58
2023/05/24 21:48:17;;;;;;;66.60;6.15;;;;;;;-148.24;100.00;61531.34;5003779;28;20410;-56
2023/05/24 21:50:43;;;;;;;65.47;6.28;;;;;;;-148.24;100.00;61531.34;5004931;28;20395;-58
2023/05/24 21:53:08;;;;;;;112.95;8.77;;;;;;;-148.24;100.00;61531.34;5003436;28;20113;-58
2023/05/24 21:55:33;;;;;;;113.88;9.40;;;;;;;-148.24;100.00;61531.34;5004755;28;20038;-60
2023/05/24 21:57:59;;;;;;;69.15;6.97;;;;;;;-148.24;100.00;61531.34;5003764;28;20768;-58
2023/05/24 22:00:25;;;;;;;70.78;6.85;;;;;;;-148.24;100.00;61531.34;5005196;28;20025;-60
2023/05/24 22:02:51;;;;;;;76.00;7.13;;;;;;;-148.24;100.00;61531.34;5006086;28;20030;-60
2023/05/24 22:05:17;;;;;;;122.88;10.52;;;;;;;-148.24;100.00;61531.34;5003994;28;20334;-58
2023/05/24 22:07:43;;;;;;;76.00;7.22;;;;;;;-148.24;100.00;61531.34;5005189;28;20018;-59
2023/05/24 22:10:10;;;;;;;114.38;9.63;;;;;;;-148.24;100.00;61531.34;5002296;28;20033;-58
2023/05/24 22:12:36;;;;;;;89.95;7.85;;;;;;;-148.24;100.00;61531.34;5005596;28;20021;-57
2023/05/24 22:15:02;;;;;;;112.95;9.18;;;;;;;-148.24;100.00;61531.34;5002951;28;20025;-58
2023/05/24 22:17:31;;;;;;;68.97;7.30;;;;;;;-148.24;100.00;61531.34;5005411;28;20033;-58
2023/05/24 22:20:00;;;;;;;95.40;8.40;;;;;;;-148.24;100.00;61531.34;5005799;28;20040;-59
2023/05/24 22:22:27;;;;;;;87.72;7.60;;;;;;;-148.24;100.00;61531.34;5006101;28;20128;-58
2023/05/24 22:24:53;;;;;;;98.15;8.27;;;;;;;-148.24;100.00;61531.34;5001222;28;20034;-60
2023/05/24 22:27:19;;;;;;;126.85;10.20;;;;;;;-148.24;100.00;61531.34;5002044;28;20037;-58
2023/05/24 22:29:45;;;;;;;51.80;5.93;;;;;;;-148.24;100.00;61531.34;5022094;28;20060;-58
